sensor_id;sensor_type;location;lat;lon;timestamp;temperature;humidity
46562;DHT22;32289;42.688;23.330;2023-06-14T00:02:23;16.30;99.90
46562;DHT22;32289;42.688;23.330;2023-06-14T00:06:04;16.20;99.90
46562;DHT22;32289;42.688;23.330;2023-06-14T00:09:45;16.20;99.90
46562;DHT22;32289;42.688;23.330;2023-06-14T00:13:26;16.30;99.90
46562;DHT22;32289;42.688;23.330;2023-06-14T00:17:07;16.30;99.90
46562;DHT22;32289;42.688;23.330;2023-06-14T00:20:49;16.30;99.90
46562;DHT22;32289;42.688;23.330;2023-06-14T00:24:30;16.30;99.90
46562;DHT22;32289;42.688;23.330;2023-06-14T00:28:11;16.30;99.90
46562;DHT22;32289;42.688;23.330;2023-06-14T00:31:51;16.20;99.90
46562;DHT22;32289;42.688;23.330;2023-06-14T00:35:32;16.20;99.90
46562;DHT22;32289;42.688;23.330;2023-06-14T00:39:13;16.30;99.90
46562;DHT22;32289;42.688;23.330;2023-06-14T00:42:54;16.40;99.90
46562;DHT22;32289;42.688;23.330;2023-06-14T00:46:34;16.30;99.90
46562;DHT22;32289;42.688;23.330;2023-06-14T00:50:15;16.20;99.90
46562;DHT22;32289;42.688;23.330;2023-06-14T00:53:56;16.20;99.90
46562;DHT22;32289;42.688;23.330;2023-06-14T00:57:36;16.30;99.90
46562;DHT22;32289;42.688;23.330;2023-06-14T01:01:18;16.30;99.90
46562;DHT22;32289;42.688;23.330;2023-06-14T01:04:58;16.30;99.90
46562;DHT22;32289;42.688;23.330;2023-06-14T01:08:51;16.20;99.90
46562;DHT22;32289;42.688;23.330;2023-06-14T01:16:53;16.20;99.90
46562;DHT22;32289;42.688;23.330;2023-06-14T01:20:34;16.30;99.90
46562;DHT22;32289;42.688;23.330;2023-06-14T01:24:17;16.20;99.90
46562;DHT22;32289;42.688;23.330;2023-06-14T01:28:03;16.30;99.90
46562;DHT22;32289;42.688;23.330;2023-06-14T01:31:44;16.40;99.90
46562;DHT22;32289;42.688;23.330;2023-06-14T01:35:25;16.40;99.90
46562;DHT22;32289;42.688;23.330;2023-06-14T01:39:06;16.30;99.90
46562;DHT22;32289;42.688;23.330;2023-06-14T01:42:49;16.30;99.90
46562;DHT22;32289;42.688;23.330;2023-06-14T01:46:30;16.20;99.90
46562;DHT22;32289;42.688;23.330;2023-06-14T01:50:11;16.20;99.90
46562;DHT22;32289;42.688;23.330;2023-06-14T01:53:52;16.20;99.90
46562;DHT22;32289;42.688;23.330;2023-06-14T01:57:33;16.30;99.90
46562;DHT22;32289;42.688;23.330;2023-06-14T02:01:13;16.20;99.90
46562;DHT22;32289;42.688;23.330;2023-06-14T02:04:56;16.10;99.90
46562;DHT22;32289;42.688;23.330;2023-06-14T02:08:37;16.10;99.90
46562;DHT22;32289;42.688;23.330;2023-06-14T02:12:18;16.10;99.90
46562;DHT22;32289;42.688;23.330;2023-06-14T02:15:59;16.00;99.90
46562;DHT22;32289;42.688;23.330;2023-06-14T02:19:40;16.00;99.90
46562;DHT22;32289;42.688;23.330;2023-06-14T02:23:21;16.00;99.90
46562;DHT22;32289;42.688;23.330;2023-06-14T02:27:02;16.00;99.90
46562;DHT22;32289;42.688;23.330;2023-06-14T02:30:42;16.00;99.90
46562;DHT22;32289;42.688;23.330;2023-06-14T02:34:25;16.00;99.90
46562;DHT22;32289;42.688;23.330;2023-06-14T02:38:06;16.00;99.90
46562;DHT22;32289;42.688;23.330;2023-06-14T02:41:47;15.90;99.90
46562;DHT22;32289;42.688;23.330;2023-06-14T02:45:27;16.00;99.90
46562;DHT22;32289;42.688;23.330;2023-06-14T02:49:11;15.90;99.90
46562;DHT22;32289;42.688;23.330;2023-06-14T02:52:51;15.80;99.90
46562;DHT22;32289;42.688;23.330;2023-06-14T02:56:33;15.80;99.90
46562;DHT22;32289;42.688;23.330;2023-06-14T03:00:13;15.80;99.90
46562;DHT22;32289;42.688;23.330;2023-06-14T03:03:54;15.70;99.90
46562;DHT22;32289;42.688;23.330;2023-06-14T03:07:35;15.70;99.90
46562;DHT22;32289;42.688;23.330;2023-06-14T03:11:21;15.70;99.90
46562;DHT22;32289;42.688;23.330;2023-06-14T03:15:02;15.40;99.90
46562;DHT22;32289;42.688;23.330;2023-06-14T03:18:43;15.40;99.90
46562;DHT22;32289;42.688;23.330;2023-06-14T03:22:24;15.50;99.90
46562;DHT22;32289;42.688;23.330;2023-06-14T03:26:06;15.60;99.90
46562;DHT22;32289;42.688;23.330;2023-06-14T03:29:46;15.60;99.90
46562;DHT22;32289;42.688;23.330;2023-06-14T03:33:27;15.80;99.90
46562;DHT22;32289;42.688;23.330;2023-06-14T03:37:08;15.90;99.90
46562;DHT22;32289;42.688;23.330;2023-06-14T03:40:48;15.90;99.90
46562;DHT22;32289;42.688;23.330;2023-06-14T03:44:29;16.00;99.90
46562;DHT22;32289;42.688;23.330;2023-06-14T03:48:10;16.00;99.90
46562;DHT22;32289;42.688;23.330;2023-06-14T03:51:51;16.20;99.90
46562;DHT22;32289;42.688;23.330;2023-06-14T03:55:32;16.20;99.90
46562;DHT22;32289;42.688;23.330;2023-06-14T03:59:13;16.20;99.90
46562;DHT22;32289;42.688;23.330;2023-06-14T04:02:54;16.20;99.90
46562;DHT22;32289;42.688;23.330;2023-06-14T04:06:35;16.30;99.90
46562;DHT22;32289;42.688;23.330;2023-06-14T04:10:16;16.30;99.90
46562;DHT22;32289;42.688;23.330;2023-06-14T04:13:57;16.50;99.90
46562;DHT22;32289;42.688;23.330;2023-06-14T04:17:38;16.50;99.90
46562;DHT22;32289;42.688;23.330;2023-06-14T04:21:19;16.50;99.90
46562;DHT22;32289;42.688;23.330;2023-06-14T04:24:59;16.70;99.90
46562;DHT22;32289;42.688;23.330;2023-06-14T04:28:40;17.20;99.90
46562;DHT22;32289;42.688;23.330;2023-06-14T04:32:21;17.00;99.90
46562;DHT22;32289;42.688;23.330;2023-06-14T04:36:02;17.50;99.90
46562;DHT22;32289;42.688;23.330;2023-06-14T04:39:43;17.40;99.90
46562;DHT22;32289;42.688;23.330;2023-06-14T04:43:25;17.20;99.90
46562;DHT22;32289;42.688;23.330;2023-06-14T04:47:08;18.40;99.90
46562;DHT22;32289;42.688;23.330;2023-06-14T04:50:49;19.20;99.90
46562;DHT22;32289;42.688;23.330;2023-06-14T04:54:33;18.90;99.90
46562;DHT22;32289;42.688;23.330;2023-06-14T04:58:14;18.90;99.90
46562;DHT22;32289;42.688;23.330;2023-06-14T05:01:55;18.80;99.90
46562;DHT22;32289;42.688;23.330;2023-06-14T05:05:39;19.30;99.90
46562;DHT22;32289;42.688;23.330;2023-06-14T05:09:23;18.90;99.90
46562;DHT22;32289;42.688;23.330;2023-06-14T05:13:03;18.10;99.90
46562;DHT22;32289;42.688;23.330;2023-06-14T05:16:46;17.90;99.90
46562;DHT22;32289;42.688;23.330;2023-06-14T05:20:29;18.50;99.90
46562;DHT22;32289;42.688;23.330;2023-06-14T05:24:10;18.50;99.90
46562;DHT22;32289;42.688;23.330;2023-06-14T05:27:51;19.30;99.90
46562;DHT22;32289;42.688;23.330;2023-06-14T05:31:32;19.50;99.90
46562;DHT22;32289;42.688;23.330;2023-06-14T05:35:13;19.20;99.90
46562;DHT22;32289;42.688;23.330;2023-06-14T05:38:54;19.00;99.90
46562;DHT22;32289;42.688;23.330;2023-06-14T05:42:40;18.50;99.90
46562;DHT22;32289;42.688;23.330;2023-06-14T05:46:21;17.90;99.90
46562;DHT22;32289;42.688;23.330;2023-06-14T05:50:02;18.00;99.90
46562;DHT22;32289;42.688;23.330;2023-06-14T05:53:43;18.30;99.90
46562;DHT22;32289;42.688;23.330;2023-06-14T05:57:24;18.40;99.90
46562;DHT22;32289;42.688;23.330;2023-06-14T06:01:04;18.30;99.90
46562;DHT22;32289;42.688;23.330;2023-06-14T06:04:45;18.60;99.90
46562;DHT22;32289;42.688;23.330;2023-06-14T06:08:29;18.90;99.90
46562;DHT22;32289;42.688;23.330;2023-06-14T06:12:10;19.20;99.90
46562;DHT22;32289;42.688;23.330;2023-06-14T06:15:51;19.30;99.90
46562;DHT22;32289;42.688;23.330;2023-06-14T06:19:31;19.20;99.90
46562;DHT22;32289;42.688;23.330;2023-06-14T06:23:12;18.80;99.90
46562;DHT22;32289;42.688;23.330;2023-06-14T06:26:53;18.30;99.90
46562;DHT22;32289;42.688;23.330;2023-06-14T06:30:34;18.70;99.90
46562;DHT22;32289;42.688;23.330;2023-06-14T06:34:16;18.70;99.90
46562;DHT22;32289;42.688;23.330;2023-06-14T06:37:56;18.80;99.90
46562;DHT22;32289;42.688;23.330;2023-06-14T06:41:38;18.60;99.90
46562;DHT22;32289;42.688;23.330;2023-06-14T06:45:20;18.80;99.90
46562;DHT22;32289;42.688;23.330;2023-06-14T06:49:01;18.60;99.90
46562;DHT22;32289;42.688;23.330;2023-06-14T06:52:41;18.70;99.90
46562;DHT22;32289;42.688;23.330;2023-06-14T06:56:22;18.60;99.90
46562;DHT22;32289;42.688;23.330;2023-06-14T07:00:03;19.00;99.90
46562;DHT22;32289;42.688;23.330;2023-06-14T07:03:48;19.00;99.90
46562;DHT22;32289;42.688;23.330;2023-06-14T07:07:29;18.90;99.90
46562;DHT22;32289;42.688;23.330;2023-06-14T07:11:10;19.70;99.90
46562;DHT22;32289;42.688;23.330;2023-06-14T07:14:50;21.10;99.90
46562;DHT22;32289;42.688;23.330;2023-06-14T07:18:31;21.60;99.90
46562;DHT22;32289;42.688;23.330;2023-06-14T07:22:12;20.70;99.90
46562;DHT22;32289;42.688;23.330;2023-06-14T07:25:53;21.10;99.90
46562;DHT22;32289;42.688;23.330;2023-06-14T07:29:33;21.20;99.90
46562;DHT22;32289;42.688;23.330;2023-06-14T07:33:14;21.70;99.90
46562;DHT22;32289;42.688;23.330;2023-06-14T07:36:55;22.70;99.90
46562;DHT22;32289;42.688;23.330;2023-06-14T07:40:36;24.90;99.90
46562;DHT22;32289;42.688;23.330;2023-06-14T07:44:16;25.00;99.90
46562;DHT22;32289;42.688;23.330;2023-06-14T07:47:57;24.40;99.90
46562;DHT22;32289;42.688;23.330;2023-06-14T07:51:38;22.90;99.90
46562;DHT22;32289;42.688;23.330;2023-06-14T07:55:20;21.80;99.90
46562;DHT22;32289;42.688;23.330;2023-06-14T07:59:00;21.80;99.90
46562;DHT22;32289;42.688;23.330;2023-06-14T08:02:42;22.50;99.90
46562;DHT22;32289;42.688;23.330;2023-06-14T08:06:22;24.80;99.90
46562;DHT22;32289;42.688;23.330;2023-06-14T08:10:04;23.80;99.90
46562;DHT22;32289;42.688;23.330;2023-06-14T08:13:45;26.40;98.40
46562;DHT22;32289;42.688;23.330;2023-06-14T08:17:26;27.70;93.70
46562;DHT22;32289;42.688;23.330;2023-06-14T08:21:07;27.20;93.70
46562;DHT22;32289;42.688;23.330;2023-06-14T08:24:47;27.00;90.70
46562;DHT22;32289;42.688;23.330;2023-06-14T08:28:28;25.60;94.20
46562;DHT22;32289;42.688;23.330;2023-06-14T08:32:09;23.70;99.90
46562;DHT22;32289;42.688;23.330;2023-06-14T08:35:50;23.20;99.90
46562;DHT22;32289;42.688;23.330;2023-06-14T08:39:31;22.30;99.90
46562;DHT22;32289;42.688;23.330;2023-06-14T08:43:12;22.30;99.90
46562;DHT22;32289;42.688;23.330;2023-06-14T08:46:55;23.50;99.90
46562;DHT22;32289;42.688;23.330;2023-06-14T08:50:39;25.80;99.90
46562;DHT22;32289;42.688;23.330;2023-06-14T08:54:22;25.00;99.90
46562;DHT22;32289;42.688;23.330;2023-06-14T08:58:04;25.70;99.90
46562;DHT22;32289;42.688;23.330;2023-06-14T09:01:45;26.70;97.60
46562;DHT22;32289;42.688;23.330;2023-06-14T09:05:27;26.30;94.00
46562;DHT22;32289;42.688;23.330;2023-06-14T09:09:07;24.80;96.60
46562;DHT22;32289;42.688;23.330;2023-06-14T09:12:48;25.20;96.80
46562;DHT22;32289;42.688;23.330;2023-06-14T09:16:29;24.40;99.60
46562;DHT22;32289;42.688;23.330;2023-06-14T09:20:12;25.80;97.90
46562;DHT22;32289;42.688;23.330;2023-06-14T09:23:59;26.90;93.20
46562;DHT22;32289;42.688;23.330;2023-06-14T09:27:41;26.40;91.90
46562;DHT22;32289;42.688;23.330;2023-06-14T09:31:22;25.60;95.00
46562;DHT22;32289;42.688;23.330;2023-06-14T09:35:04;24.00;99.00
46562;DHT22;32289;42.688;23.330;2023-06-14T09:38:58;23.80;99.90
46562;DHT22;32289;42.688;23.330;2023-06-14T09:42:40;23.40;99.90
46562;DHT22;32289;42.688;23.330;2023-06-14T09:46:22;25.70;97.40
46562;DHT22;32289;42.688;23.330;2023-06-14T09:50:02;26.50;95.30
46562;DHT22;32289;42.688;23.330;2023-06-14T09:53:43;25.40;95.10
46562;DHT22;32289;42.688;23.330;2023-06-14T09:57:25;25.10;95.50
46562;DHT22;32289;42.688;23.330;2023-06-14T10:01:08;25.10;97.10
46562;DHT22;32289;42.688;23.330;2023-06-14T10:04:56;24.50;96.00
46562;DHT22;32289;42.688;23.330;2023-06-14T10:08:39;26.90;90.20
46562;DHT22;32289;42.688;23.330;2023-06-14T10:12:20;27.00;88.70
46562;DHT22;32289;42.688;23.330;2023-06-14T10:19:56;25.80;91.30
46562;DHT22;32289;42.688;23.330;2023-06-14T10:23:43;25.30;92.40
46562;DHT22;32289;42.688;23.330;2023-06-14T10:27:24;25.60;90.40
46562;DHT22;32289;42.688;23.330;2023-06-14T10:31:11;25.80;91.60
46562;DHT22;32289;42.688;23.330;2023-06-14T10:35:05;25.60;93.50
46562;DHT22;32289;42.688;23.330;2023-06-14T10:39:10;27.10;90.50
46562;DHT22;32289;42.688;23.330;2023-06-14T10:42:51;26.90;85.20
46562;DHT22;32289;42.688;23.330;2023-06-14T10:46:32;25.30;90.60
46562;DHT22;32289;42.688;23.330;2023-06-14T10:50:13;24.30;93.60
46562;DHT22;32289;42.688;23.330;2023-06-14T10:53:58;25.00;94.60
46562;DHT22;32289;42.688;23.330;2023-06-14T10:57:44;26.00;92.30
46562;DHT22;32289;42.688;23.330;2023-06-14T11:13:42;27.00;89.20
46562;DHT22;32289;42.688;23.330;2023-06-14T11:17:23;26.80;87.50
46562;DHT22;32289;42.688;23.330;2023-06-14T11:21:04;26.40;88.40
46562;DHT22;32289;42.688;23.330;2023-06-14T11:24:45;27.00;86.90
46562;DHT22;32289;42.688;23.330;2023-06-14T11:28:39;27.00;83.50
46562;DHT22;32289;42.688;23.330;2023-06-14T11:32:20;25.90;91.00
46562;DHT22;32289;42.688;23.330;2023-06-14T11:36:05;24.50;91.90
46562;DHT22;32289;42.688;23.330;2023-06-14T11:39:48;25.70;87.70
46562;DHT22;32289;42.688;23.330;2023-06-14T11:43:29;26.40;88.20
46562;DHT22;32289;42.688;23.330;2023-06-14T11:47:12;26.70;84.00
46562;DHT22;32289;42.688;23.330;2023-06-14T11:50:53;25.10;90.10
46562;DHT22;32289;42.688;23.330;2023-06-14T11:54:34;25.00;91.90
46562;DHT22;32289;42.688;23.330;2023-06-14T11:58:15;25.50;91.10
46562;DHT22;32289;42.688;23.330;2023-06-14T12:01:56;25.20;88.70
46562;DHT22;32289;42.688;23.330;2023-06-14T12:05:37;25.70;85.90
46562;DHT22;32289;42.688;23.330;2023-06-14T12:09:17;26.20;85.20
46562;DHT22;32289;42.688;23.330;2023-06-14T12:12:59;25.30;89.90
46562;DHT22;32289;42.688;23.330;2023-06-14T12:16:41;25.40;90.70
46562;DHT22;32289;42.688;23.330;2023-06-14T12:20:22;25.30;87.80
46562;DHT22;32289;42.688;23.330;2023-06-14T12:24:03;25.80;86.50
46562;DHT22;32289;42.688;23.330;2023-06-14T12:27:44;25.10;88.80
46562;DHT22;32289;42.688;23.330;2023-06-14T12:31:27;25.30;90.40
46562;DHT22;32289;42.688;23.330;2023-06-14T12:35:07;25.80;90.30
46562;DHT22;32289;42.688;23.330;2023-06-14T12:38:48;24.80;88.40
46562;DHT22;32289;42.688;23.330;2023-06-14T12:42:31;24.60;90.60
46562;DHT22;32289;42.688;23.330;2023-06-14T12:46:11;25.10;90.00
46562;DHT22;32289;42.688;23.330;2023-06-14T12:49:52;25.20;87.90
46562;DHT22;32289;42.688;23.330;2023-06-14T12:53:32;25.20;84.70
46562;DHT22;32289;42.688;23.330;2023-06-14T12:57:13;25.00;88.20
46562;DHT22;32289;42.688;23.330;2023-06-14T13:00:54;24.40;90.10
46562;DHT22;32289;42.688;23.330;2023-06-14T13:04:35;24.50;91.50
46562;DHT22;32289;42.688;23.330;2023-06-14T13:08:15;24.60;91.40
46562;DHT22;32289;42.688;23.330;2023-06-14T13:11:56;24.80;92.20
46562;DHT22;32289;42.688;23.330;2023-06-14T13:15:37;25.00;90.60
46562;DHT22;32289;42.688;23.330;2023-06-14T13:19:18;25.20;90.30
46562;DHT22;32289;42.688;23.330;2023-06-14T13:22:59;24.90;89.40
46562;DHT22;32289;42.688;23.330;2023-06-14T13:26:40;24.00;95.00
46562;DHT22;32289;42.688;23.330;2023-06-14T13:30:20;23.20;99.90
46562;DHT22;32289;42.688;23.330;2023-06-14T13:34:02;23.00;99.90
46562;DHT22;32289;42.688;23.330;2023-06-14T13:37:43;22.30;99.90
46562;DHT22;32289;42.688;23.330;2023-06-14T13:41:25;20.80;99.90
46562;DHT22;32289;42.688;23.330;2023-06-14T14:57:48;19.50;99.90
46562;DHT22;32289;42.688;23.330;2023-06-14T15:06:05;19.10;99.90
46562;DHT22;32289;42.688;23.330;2023-06-14T16:40:32;19.10;99.90
46562;DHT22;32289;42.688;23.330;2023-06-14T17:07:48;18.70;99.90
46562;DHT22;32289;42.688;23.330;2023-06-14T20:03:42;18.00;99.90
46562;DHT22;32289;42.688;23.330;2023-06-14T20:07:24;17.60;99.90
46562;DHT22;32289;42.688;23.330;2023-06-14T20:11:05;16.70;99.90
46562;DHT22;32289;42.688;23.330;2023-06-14T20:14:45;16.60;99.90
46562;DHT22;32289;42.688;23.330;2023-06-14T20:18:53;16.30;99.90
46562;DHT22;32289;42.688;23.330;2023-06-14T20:22:40;15.80;99.90
46562;DHT22;32289;42.688;23.330;2023-06-14T20:26:20;15.30;99.90
46562;DHT22;32289;42.688;23.330;2023-06-14T20:48:54;15.30;99.90
46562;DHT22;32289;42.688;23.330;2023-06-14T20:57:31;15.40;99.90
46562;DHT22;32289;42.688;23.330;2023-06-14T21:01:12;15.40;99.90
46562;DHT22;32289;42.688;23.330;2023-06-14T23:25:27;15.60;99.90
46562;DHT22;32289;42.688;23.330;2023-06-14T23:29:08;15.60;99.90
46562;DHT22;32289;42.688;23.330;2023-06-14T23:32:49;15.60;99.90
46562;DHT22;32289;42.688;23.330;2023-06-14T23:36:31;15.50;99.90
46562;DHT22;32289;42.688;23.330;2023-06-14T23:40:17;15.70;99.90
46562;DHT22;32289;42.688;23.330;2023-06-14T23:43:59;15.30;99.90
46562;DHT22;32289;42.688;23.330;2023-06-14T23:47:45;15.30;99.90
46562;DHT22;32289;42.688;23.330;2023-06-14T23:51:26;15.30;99.90
46562;DHT22;32289;42.688;23.330;2023-06-14T23:55:07;15.50;99.90
